This is the latest recevied weather packets stored in our database for station/object EA1BVF-10. If no packets are shown the sender has not sent any weather packets the latest 10 day(s).
| Time | Temp. | Humidity | Pressure | Rain* | Wind** | Luminosity | Snow |
|---|---|---|---|---|---|---|---|
| 1788016942 | 12.78° C | 100% | 1037.4 hPa | - | - | - | - |
| 1788015142 | 12.78° C | 100% | 1037.4 hPa | - | - | - | - |
| 1788013342 | 12.22° C | 100% | 1037.3 hPa | - | - | - | - |
| 1788011544 | 12.22° C | 100% | 1037.5 hPa | - | - | - | - |
| 1788009742 | 12.22° C | 100% | 1037.4 hPa | - | - | - | - |
| 1788007941 | 11.67° C | 100% | 1037.5 hPa | - | - | - | - |
| 1788006141 | 11.67° C | 100% | 1037.2 hPa | - | - | - | - |
| 1788004341 | 11.11° C | 100% | 1037 hPa | - | - | - | - |
| 1788002541 | 11.11° C | 6% | 1037 hPa | - | - | - | - |
| 1788000741 | 10.56° C | 18% | 1037.1 hPa | - | - | - | - |
| 1787998941 | 10° C | 26% | 1037 hPa | - | - | - | - |
| 1787997141 | 10° C | 38% | 1036.9 hPa | - | - | - | - |
| 1787995341 | 9.44° C | 50% | 1036.6 hPa | - | - | - | - |
| 1787993541 | 9.44° C | 59% | 1036.3 hPa | - | - | - | - |
| 1787991741 | 8.89° C | 67% | 1035.7 hPa | - | - | - | - |
| 1787989941 | 8.89° C | 72% | 1035.8 hPa | - | - | - | - |
| 1787988141 | 8.33° C | 55% | 1035.8 hPa | - | - | - | - |
| 1787942737 | 10.56° C | 100% | 1036.7 hPa | - | - | - | - |
| 1787940938 | 10.56° C | 100% | 1036.5 hPa | - | - | - | - |
| 1787939137 | 10° C | 100% | 1036.8 hPa | - | - | - | - |
| 1787937337 | 10° C | 100% | 1036.7 hPa | - | - | - | - |
| 1787935537 | 10° C | 100% | 1036.6 hPa | - | - | - | - |
| 1787933737 | 10° C | 100% | 1036.8 hPa | - | - | - | - |
| 1787931937 | 9.44° C | 100% | 1036.5 hPa | - | - | - | - |
| 1787930136 | 9.44° C | 100% | 1036.4 hPa | - | - | - | - |
* Rain since midnight (hover to see other rain measurements)
** Current wind speed in m/s (hover to see current wind gust speed)